createdAt,value
2018-11-03T00:07:14.888Z,5.90
2018-11-03T00:09:43.769Z,5.20
2018-11-03T00:12:12.327Z,5.20
2018-11-03T00:14:40.716Z,5.20
2018-11-03T00:17:09.345Z,5.20
2018-11-03T00:19:37.725Z,5.20
2018-11-03T00:22:06.116Z,5.20
2018-11-03T00:24:34.572Z,5.10
2018-11-03T00:27:03.021Z,5.10
2018-11-03T00:29:35.575Z,5.10
2018-11-03T00:32:03.961Z,5.20
2018-11-03T00:34:32.358Z,5.10
2018-11-03T00:37:00.809Z,5.10
2018-11-03T00:39:29.169Z,5.10
2018-11-03T00:42:04.268Z,5.10
2018-11-03T00:44:32.671Z,5.10
2018-11-03T00:47:00.945Z,5.00
2018-11-03T00:49:29.358Z,5.00
2018-11-03T00:51:57.922Z,5.00
2018-11-03T00:54:26.908Z,5.00
2018-11-03T00:56:55.461Z,5.00
2018-11-03T00:59:24.217Z,5.00
2018-11-03T01:01:52.757Z,5.00
2018-11-03T01:04:21.526Z,4.90
2018-11-03T01:06:49.886Z,4.90
2018-11-03T01:09:18.385Z,4.90
2018-11-03T01:19:13.354Z,4.90
2018-11-03T01:21:41.993Z,4.70
2018-11-03T01:24:10.685Z,4.60
2018-11-03T01:26:39.042Z,4.60
2018-11-03T01:29:07.585Z,4.50
2018-11-03T01:31:35.985Z,4.50
2018-11-03T01:46:25.938Z,4.40
2018-11-03T01:58:48.130Z,4.10
2018-11-03T02:01:16.775Z,3.90
2018-11-03T02:13:39.086Z,3.80
2018-11-03T02:40:51.395Z,3.70
2018-11-03T02:43:19.979Z,3.60
2018-11-03T03:12:57.911Z,3.60
2018-11-03T03:30:15.054Z,3.10
2018-11-03T03:50:01.228Z,2.90
2018-11-03T03:52:29.656Z,2.90
2018-11-03T03:54:58.093Z,2.90
2018-11-03T03:57:26.606Z,2.80
2018-11-03T03:59:54.980Z,2.80
2018-11-03T04:07:19.600Z,2.80
2018-11-03T04:12:16.228Z,2.80
2018-11-03T04:14:44.568Z,2.70
2018-11-03T04:17:13.004Z,2.70
2018-11-03T04:19:41.317Z,2.70
2018-11-03T04:22:09.685Z,2.60
2018-11-03T04:24:38.016Z,2.50
2018-11-03T04:27:06.616Z,2.50
2018-11-03T04:29:34.952Z,2.60
2018-11-03T04:32:03.363Z,2.50
2018-11-03T04:34:31.680Z,2.50
2018-11-03T04:37:00.179Z,2.50
2018-11-03T04:39:34.672Z,2.50
2018-11-03T04:42:03.012Z,2.50
2018-11-03T04:44:31.408Z,2.50
2018-11-03T04:46:59.789Z,2.50
2018-11-03T04:49:28.241Z,2.50
2018-11-03T04:51:56.689Z,2.50
2018-11-03T04:54:25.100Z,2.50
2018-11-03T04:56:53.498Z,2.50
2018-11-03T04:59:21.904Z,2.50
2018-11-03T05:01:50.297Z,2.40
2018-11-03T05:04:18.621Z,2.40
2018-11-03T05:06:46.982Z,2.40
2018-11-03T05:09:15.352Z,2.50
2018-11-03T05:11:43.677Z,2.50
2018-11-03T05:14:12.079Z,2.50
2018-11-03T05:16:40.380Z,2.40
2018-11-03T05:19:09.164Z,2.50
2018-11-03T05:21:37.597Z,2.50
2018-11-03T05:24:06.148Z,2.50
2018-11-03T05:26:34.720Z,2.50
2018-11-03T05:29:03.078Z,2.40
2018-11-03T05:31:31.385Z,2.50
2018-11-03T05:33:59.749Z,2.50
2018-11-03T05:36:28.068Z,2.50
2018-11-03T05:38:56.427Z,2.40
2018-11-03T05:41:24.740Z,2.40
2018-11-03T05:43:53.058Z,2.40
2018-11-03T05:46:21.530Z,2.40
2018-11-03T05:48:49.804Z,2.40
2018-11-03T05:51:18.194Z,2.40
2018-11-03T05:53:46.598Z,2.30
2018-11-03T05:56:14.940Z,2.30
2018-11-03T05:58:43.334Z,2.30
2018-11-03T06:01:11.710Z,2.30
2018-11-03T06:03:40.095Z,2.30
2018-11-03T06:06:08.460Z,2.30
2018-11-03T06:08:36.846Z,2.30
2018-11-03T06:11:05.598Z,2.30
2018-11-03T06:13:33.974Z,2.30
2018-11-03T06:16:02.395Z,2.30
2018-11-03T06:18:30.699Z,2.30
2018-11-03T06:20:59.078Z,2.30
2018-11-03T06:23:27.551Z,2.40
2018-11-03T06:25:55.830Z,2.40
2018-11-03T06:28:24.279Z,2.40
2018-11-03T06:30:52.663Z,2.40
2018-11-03T06:33:21.059Z,2.40
2018-11-03T06:35:49.413Z,2.40
2018-11-03T06:38:17.755Z,2.50
2018-11-03T06:40:46.096Z,2.50
2018-11-03T06:43:14.432Z,2.60
2018-11-03T06:45:42.800Z,2.60
2018-11-03T06:48:11.163Z,2.60
2018-11-03T06:50:39.547Z,2.60
2018-11-03T06:53:07.871Z,2.60
2018-11-03T06:55:36.238Z,2.60
2018-11-03T06:58:04.693Z,2.70
2018-11-03T07:00:33.059Z,2.70
2018-11-03T07:03:01.463Z,2.80
2018-11-03T07:05:29.811Z,2.90
2018-11-03T07:07:58.166Z,3.00
2018-11-03T07:10:26.595Z,3.10
2018-11-03T07:12:55.024Z,3.20
2018-11-03T07:15:23.540Z,3.20
2018-11-03T07:17:51.916Z,3.30
2018-11-03T07:20:20.584Z,3.40
2018-11-03T07:22:49.473Z,3.40
2018-11-03T07:25:17.764Z,3.50
2018-11-03T07:27:46.975Z,3.90
2018-11-03T07:30:15.556Z,4.30
2018-11-03T07:32:43.923Z,4.70
2018-11-03T07:35:12.317Z,4.90
2018-11-03T07:37:41.531Z,5.00
2018-11-03T07:40:10.568Z,5.00
2018-11-03T07:42:39.210Z,5.00
2018-11-03T07:45:08.040Z,4.80
2018-11-03T07:47:36.704Z,4.80
2018-11-03T07:50:07.464Z,4.80
2018-11-03T07:52:35.903Z,4.70
2018-11-03T07:55:04.379Z,4.60
2018-11-03T07:57:32.803Z,4.60
2018-11-03T08:00:01.169Z,4.50
2018-11-03T08:02:36.143Z,4.50
2018-11-03T08:05:04.688Z,4.60
2018-11-03T08:07:33.033Z,4.70
2018-11-03T08:10:04.400Z,4.70
2018-11-03T08:12:32.672Z,4.60
2018-11-03T08:15:01.180Z,4.50
2018-11-03T08:17:29.515Z,4.50
2018-11-03T08:19:57.777Z,4.60
2018-11-03T08:22:26.516Z,4.80
2018-11-03T08:24:54.862Z,4.90
2018-11-03T08:27:23.202Z,5.10
2018-11-03T08:29:51.550Z,5.50
2018-11-03T08:32:19.959Z,5.90
2018-11-03T08:34:48.455Z,6.10
2018-11-03T08:37:16.816Z,6.40
2018-11-03T08:39:45.195Z,6.60
2018-11-03T08:42:13.454Z,6.80
2018-11-03T08:44:41.807Z,7.20
2018-11-03T08:47:10.215Z,7.60
2018-11-03T08:49:38.515Z,7.60
2018-11-03T08:52:06.863Z,7.80
2018-11-03T08:54:35.244Z,8.10
2018-11-03T08:57:03.763Z,8.20
2018-11-03T08:59:32.093Z,8.50
2018-11-03T09:02:00.519Z,8.60
2018-11-03T09:04:28.882Z,9.00
2018-11-03T09:06:57.408Z,9.00
2018-11-03T09:09:25.746Z,9.20
2018-11-03T09:11:54.203Z,9.30
2018-11-03T09:14:22.772Z,9.40
2018-11-03T09:16:51.235Z,9.50
2018-11-03T09:19:19.716Z,9.40
2018-11-03T09:21:48.309Z,9.40
2018-11-03T09:24:17.748Z,9.40
2018-11-03T09:26:46.128Z,9.60
2018-11-03T09:29:14.487Z,9.60
2018-11-03T09:31:43.134Z,9.40
2018-11-03T09:34:11.547Z,9.60
2018-11-03T09:36:39.931Z,9.80
2018-11-03T09:39:09.838Z,10.00
2018-11-03T09:41:38.319Z,10.20
2018-11-03T09:44:06.779Z,10.50
2018-11-03T09:46:35.248Z,10.50
2018-11-03T09:49:03.719Z,10.60
2018-11-03T09:51:32.064Z,10.60
2018-11-03T09:54:00.640Z,10.90
2018-11-03T09:56:30.397Z,11.20
2018-11-03T09:58:58.836Z,11.30
2018-11-03T10:01:27.251Z,11.40
2018-11-03T10:03:55.712Z,11.70
2018-11-03T10:06:24.322Z,11.80
2018-11-03T10:08:52.684Z,12.20
2018-11-03T10:11:21.169Z,12.30
2018-11-03T10:13:49.748Z,12.50
2018-11-03T10:16:18.225Z,12.70
2018-11-03T10:18:46.582Z,12.80
2018-11-03T10:21:15.000Z,12.70
2018-11-03T10:23:43.458Z,12.80
2018-11-03T10:26:11.810Z,12.70
2018-11-03T10:28:40.337Z,12.70
2018-11-03T10:31:08.687Z,12.80
2018-11-03T10:33:37.320Z,12.90
2018-11-03T10:36:05.910Z,12.70
2018-11-03T10:38:34.321Z,12.70
2018-11-03T10:41:02.721Z,12.70
2018-11-03T10:43:31.158Z,12.60
2018-11-03T10:45:59.661Z,12.50
2018-11-03T10:48:28.042Z,12.50
2018-11-03T10:50:56.495Z,12.60
2018-11-03T10:53:24.913Z,12.60
2018-11-03T10:55:53.309Z,12.60
2018-11-03T10:58:21.786Z,12.60
2018-11-03T11:00:55.681Z,12.70
2018-11-03T11:03:29.541Z,12.70
2018-11-03T11:06:03.458Z,12.80
2018-11-03T11:08:37.266Z,13.00
2018-11-03T11:11:11.166Z,12.70
2018-11-03T11:13:40.491Z,13.00
2018-11-03T11:16:08.987Z,13.30
2018-11-03T11:18:37.353Z,13.40
2018-11-03T11:21:05.782Z,13.30
2018-11-03T11:23:34.177Z,13.60
2018-11-03T11:26:02.737Z,13.60
2018-11-03T11:28:32.018Z,13.80
2018-11-03T11:31:00.473Z,13.60
2018-11-03T11:33:28.910Z,13.50
2018-11-03T11:36:01.816Z,13.90
2018-11-03T11:38:30.218Z,14.10
2018-11-03T11:40:58.839Z,14.00
2018-11-03T11:43:27.210Z,14.10
2018-11-03T11:45:55.678Z,14.10
2018-11-03T11:48:30.651Z,14.00
2018-11-03T11:50:59.057Z,14.00
2018-11-03T11:53:27.489Z,13.80
2018-11-03T11:55:56.068Z,13.90
2018-11-03T11:58:24.658Z,14.10
2018-11-03T12:00:53.103Z,14.00
2018-11-03T12:03:21.454Z,14.00
2018-11-03T12:05:49.903Z,14.00
2018-11-03T12:08:18.299Z,14.10
2018-11-03T12:10:46.699Z,14.10
2018-11-03T12:13:15.147Z,14.10
2018-11-03T12:15:43.651Z,13.90
2018-11-03T12:18:12.007Z,14.10
2018-11-03T12:20:40.402Z,14.30
2018-11-03T12:23:08.912Z,14.40
2018-11-03T12:25:37.467Z,14.40
2018-11-03T12:28:05.835Z,14.40
2018-11-03T12:30:34.244Z,14.50
2018-11-03T12:33:02.684Z,14.50
2018-11-03T12:35:31.175Z,14.30
2018-11-03T12:38:00.439Z,14.20
2018-11-03T12:40:28.950Z,14.20
2018-11-03T12:42:57.560Z,14.10
2018-11-03T12:45:28.663Z,14.00
2018-11-03T12:47:57.315Z,13.70
2018-11-03T12:50:25.779Z,13.40
2018-11-03T12:52:54.387Z,13.40
2018-11-03T12:55:23.061Z,13.30
2018-11-03T12:57:51.552Z,13.60
2018-11-03T13:02:55.185Z,13.70
2018-11-03T13:05:23.581Z,13.50
2018-11-03T13:07:52.909Z,13.00
2018-11-03T13:10:21.513Z,13.10
2018-11-03T13:12:50.039Z,13.00
2018-11-03T13:15:18.477Z,13.20
2018-11-03T13:17:47.430Z,13.30
2018-11-03T13:20:15.993Z,13.40
2018-11-03T13:22:44.753Z,13.20
2018-11-03T13:25:13.741Z,13.40
2018-11-03T13:27:42.892Z,13.40
2018-11-03T13:30:13.429Z,13.30
2018-11-03T13:32:41.997Z,13.10
2018-11-03T13:35:11.856Z,12.90
2018-11-03T13:37:45.485Z,12.80
2018-11-03T13:40:14.836Z,12.70
2018-11-03T13:42:44.162Z,12.60
2018-11-03T13:45:12.818Z,12.70
2018-11-03T13:47:41.427Z,12.70
2018-11-03T13:50:18.444Z,12.80
2018-11-03T13:52:48.395Z,12.80
2018-11-03T13:55:16.780Z,12.80
2018-11-03T13:57:46.570Z,12.70
2018-11-03T14:00:16.606Z,12.60
2018-11-03T14:02:46.139Z,12.60
2018-11-03T14:05:14.562Z,12.50
2018-11-03T14:07:43.134Z,12.60
2018-11-03T14:10:13.854Z,12.70
2018-11-03T14:12:43.276Z,12.70
2018-11-03T14:15:13.267Z,12.70
2018-11-03T14:17:41.846Z,12.60
2018-11-03T14:20:11.759Z,12.30
2018-11-03T14:22:40.750Z,12.20
2018-11-03T14:25:10.863Z,12.00
2018-11-03T14:27:39.386Z,11.80
2018-11-03T14:30:08.807Z,11.60
2018-11-03T14:32:43.931Z,11.50
2018-11-03T14:35:13.769Z,11.50
2018-11-03T14:37:42.359Z,11.50
2018-11-03T14:40:12.974Z,11.60
2018-11-03T14:42:42.582Z,11.50
2018-11-03T14:45:12.006Z,11.30
2018-11-03T14:47:40.634Z,11.30
2018-11-03T14:50:09.396Z,11.20
2018-11-03T14:52:38.973Z,11.10
2018-11-03T14:55:08.575Z,11.10
2018-11-03T14:57:37.502Z,11.00
2018-11-03T15:00:09.779Z,11.00
2018-11-03T15:02:38.222Z,11.00
2018-11-03T15:05:07.296Z,10.90
2018-11-03T15:07:35.995Z,10.80
2018-11-03T15:10:05.455Z,10.70
2018-11-03T15:12:33.815Z,10.70
2018-11-03T15:15:02.605Z,10.60
2018-11-03T15:17:30.883Z,10.60
2018-11-03T15:19:59.286Z,10.50
2018-11-03T15:22:27.908Z,10.50
2018-11-03T15:24:56.412Z,10.50
2018-11-03T15:27:24.828Z,10.40
2018-11-03T15:32:21.481Z,10.40
2018-11-03T15:34:49.895Z,10.30
2018-11-03T15:37:18.357Z,10.20
2018-11-03T15:39:46.779Z,10.10
2018-11-03T15:42:15.183Z,10.10
2018-11-03T15:44:43.569Z,9.90
2018-11-03T15:47:11.944Z,9.90
2018-11-03T15:49:40.540Z,9.80
2018-11-03T15:52:08.883Z,9.70
2018-11-03T15:54:37.276Z,9.70
2018-11-03T15:57:06.035Z,9.70
2018-11-03T15:59:34.463Z,9.60
2018-11-03T16:02:02.820Z,9.60
2018-11-03T16:04:31.199Z,9.60
2018-11-03T16:06:59.572Z,9.60
2018-11-03T16:09:27.976Z,9.50
2018-11-03T16:11:56.452Z,9.50
2018-11-03T16:14:24.860Z,9.40
2018-11-03T16:16:53.291Z,9.40
2018-11-03T16:19:21.761Z,9.40
2018-11-03T16:21:50.223Z,9.30
2018-11-03T16:24:18.736Z,9.30
2018-11-03T16:26:47.131Z,9.30
2018-11-03T16:39:09.668Z,9.20
2018-11-03T16:41:38.021Z,8.90
2018-11-03T16:44:06.418Z,8.90
2018-11-03T16:46:34.792Z,8.80
2018-11-03T16:49:03.267Z,8.70
2018-11-03T16:51:31.641Z,8.70
2018-11-03T16:53:59.981Z,8.60
2018-11-03T16:56:28.340Z,8.50
2018-11-03T16:58:56.761Z,8.40
2018-11-03T17:01:25.232Z,8.40
2018-11-03T17:03:53.557Z,8.30
2018-11-03T17:06:21.904Z,8.20
2018-11-03T17:08:50.240Z,8.20
2018-11-03T17:11:18.673Z,8.10
2018-11-03T17:18:43.406Z,8.00
2018-11-03T17:21:11.705Z,7.70
2018-11-03T17:23:40.014Z,7.70
2018-11-03T17:26:08.473Z,7.60
2018-11-03T17:28:36.780Z,7.60
2018-11-03T17:31:05.585Z,7.50
2018-11-03T17:36:02.157Z,7.40
2018-11-03T17:38:30.753Z,7.30
2018-11-03T17:40:59.151Z,7.20
2018-11-03T17:43:27.509Z,7.20
2018-11-03T17:45:55.953Z,7.10
2018-11-03T17:48:24.272Z,7.10
2018-11-03T17:50:52.666Z,7.00
2018-11-03T17:53:21.057Z,7.00
2018-11-03T17:55:49.353Z,6.90
2018-11-03T17:58:17.773Z,6.90
2018-11-03T18:00:46.204Z,6.90
2018-11-03T18:03:14.465Z,6.80
2018-11-03T18:05:42.964Z,6.90
2018-11-03T19:24:52.786Z,6.80
2018-11-03T19:27:21.198Z,5.90
2018-11-03T19:29:49.601Z,5.90
2018-11-03T20:01:55.042Z,5.80
2018-11-03T20:04:23.426Z,5.10
2018-11-03T21:23:23.444Z,4.30
2018-11-03T21:30:47.939Z,4.10
2018-11-03T22:57:13.236Z,3.90
2018-11-03T22:59:41.534Z,3.40
2018-11-03T23:02:09.891Z,3.30
2018-11-03T23:04:38.412Z,3.40
2018-11-03T23:07:06.796Z,3.30
2018-11-03T23:09:35.219Z,3.30
2018-11-03T23:12:04.284Z,3.40
2018-11-03T23:14:32.656Z,3.40
2018-11-03T23:17:01.011Z,3.40
2018-11-03T23:19:29.369Z,3.40
2018-11-03T23:21:57.779Z,3.40
2018-11-03T23:24:26.068Z,3.40
2018-11-03T23:26:54.360Z,3.30
2018-11-03T23:29:22.758Z,3.30
2018-11-03T23:59:00.077Z,3.30
